Time;durP1;ratioP1;P1;durP2;ratioP2;P2;SDS_P1;SDS_P2;PMS_P1;PMS_P2;Temp;Humidity;BMP_temperature;BMP_pressure;BME280_temperature;BME280_humidity;BME280_pressure;Samples;Min_cycle;Max_cycle;Signal;HPM_P1;HPM_P2
2022/10/19 00:01:10;;;;;;;1.88;1.30;;;;;;;;;;5072112;28;20207;-85
2022/10/19 00:03:38;;;;;;;1.98;1.48;;;;;;;;;;5072077;28;20760;-85
2022/10/19 00:06:14;;;;;;;2.97;1.70;;;;;;;;;;5063476;28;20308;-84
2022/10/19 00:08:43;;;;;;;2.00;1.50;;;;;;;;;;5051845;28;20661;-84
2022/10/19 00:11:12;;;;;;;3.42;2.00;;;;;;;;;;5051618;28;20228;-85
2022/10/19 00:13:40;;;;;;;2.75;1.50;;;;;;;;;;5052208;28;20292;-84
2022/10/19 00:16:11;;;;;;;2.17;1.50;;;;;;;;;;5052144;28;20600;-84
2022/10/19 00:18:39;;;;;;;2.88;1.80;;;;;;;;;;5051823;28;20198;-85
2022/10/19 00:21:09;;;;;;;2.85;1.80;;;;;;;;;;5051981;28;20280;-84
2022/10/19 00:23:37;;;;;;;5.30;1.70;;;;;;;;;;5051924;28;20281;-84
2022/10/19 00:26:06;;;;;;;2.90;2.30;;;;;;;;;;5051811;28;20222;-85
2022/10/19 00:28:33;;;;;;;3.08;2.38;;;;;;;;;;5051627;28;20638;-84
2022/10/19 00:31:04;;;;;;;3.20;1.73;;;;;;;;;;5051316;28;20225;-85
2022/10/19 00:33:31;;;;;;;5.40;2.10;;;;;;;;;;5063874;28;20193;-85
2022/10/19 00:35:59;;;;;;;4.28;2.05;;;;;;;;;;5063781;28;20256;-84
2022/10/19 00:38:27;;;;;;;2.85;2.10;;;;;;;;;;5051673;28;20587;-85
2022/10/19 00:40:54;;;;;;;3.90;2.00;;;;;;;;;;5051528;28;20198;-85
2022/10/19 00:43:26;;;;;;;2.20;1.63;;;;;;;;;;5051671;28;20224;-85
2022/10/19 00:45:53;;;;;;;4.75;2.20;;;;;;;;;;5055354;28;20588;-84
2022/10/19 00:48:25;;;;;;;3.58;2.47;;;;;;;;;;5055648;28;20644;-85
2022/10/19 00:50:56;;;;;;;6.25;2.50;;;;;;;;;;5055594;28;20225;-85
2022/10/19 00:53:25;;;;;;;1.95;1.80;;;;;;;;;;5055829;28;20208;-84
2022/10/19 00:55:52;;;;;;;2.08;1.88;;;;;;;;;;5055291;28;20228;-84
2022/10/19 00:58:21;;;;;;;1.42;1.33;;;;;;;;;;5055270;28;20248;-85
2022/10/19 01:00:49;;;;;;;1.60;1.50;;;;;;;;;;5055424;28;20198;-85
2022/10/19 01:03:16;;;;;;;2.38;1.20;;;;;;;;;;5055605;28;20202;-85
2022/10/19 01:05:44;;;;;;;2.35;1.50;;;;;;;;;;5055226;28;20308;-84
2022/10/19 01:08:12;;;;;;;4.25;1.55;;;;;;;;;;5055076;28;20292;-84
2022/10/19 01:10:48;;;;;;;4.30;1.70;;;;;;;;;;5055093;28;20232;-84
2022/10/19 01:13:26;;;;;;;1.65;1.52;;;;;;;;;;5055383;28;20295;-84
2022/10/19 01:16:00;;;;;;;1.30;1.20;;;;;;;;;;5055173;28;20228;-84
2022/10/19 01:18:35;;;;;;;1.30;1.20;;;;;;;;;;5054900;28;20194;-85
2022/10/19 01:21:21;;;;;;;2.30;1.20;;;;;;;;;;5054889;28;20203;-85
2022/10/19 01:24:23;;;;;;;1.00;1.00;;;;;;;;;;5055172;28;20293;-84
2022/10/19 01:27:21;;;;;;;0.73;0.73;;;;;;;;;;5055012;28;20212;-84
2022/10/19 01:30:11;;;;;;;0.70;0.70;;;;;;;;;;5054581;28;20208;-84
2022/10/19 01:32:56;;;;;;;1.10;1.00;;;;;;;;;;5059658;28;20281;-84
2022/10/19 01:35:30;;;;;;;1.05;1.02;;;;;;;;;;5071403;28;20709;-84
2022/10/19 01:38:13;;;;;;;1.00;1.00;;;;;;;;;;5054489;28;20204;-84
2022/10/19 01:40:47;;;;;;;1.20;1.10;;;;;;;;;;5034845;28;20198;-84
2022/10/19 01:43:25;;;;;;;1.15;1.10;;;;;;;;;;5035072;28;20292;-85
2022/10/19 01:45:58;;;;;;;1.10;1.10;;;;;;;;;;5034385;28;20333;-85
2022/10/19 01:48:29;;;;;;;1.15;1.05;;;;;;;;;;5034519;28;20285;-84
2022/10/19 01:51:01;;;;;;;0.90;0.90;;;;;;;;;;5033821;28;20228;-85
2022/10/19 01:53:30;;;;;;;1.15;1.08;;;;;;;;;;5034628;28;20282;-84
2022/10/19 01:55:58;;;;;;;0.80;0.80;;;;;;;;;;5034262;28;20221;-84
2022/10/19 01:58:29;;;;;;;1.50;1.40;;;;;;;;;;5034046;28;20289;-84
2022/10/19 02:01:02;;;;;;;1.60;1.50;;;;;;;;;;5034459;28;20761;-84
2022/10/19 02:03:30;;;;;;;1.98;1.83;;;;;;;;;;5034641;28;20186;-85
2022/10/19 02:05:57;;;;;;;1.00;1.00;;;;;;;;;;5041790;28;20667;-84
2022/10/19 02:08:29;;;;;;;3.95;1.52;;;;;;;;;;5053879;28;20216;-84
2022/10/19 02:10:57;;;;;;;3.28;1.65;;;;;;;;;;5053785;28;20244;-84
2022/10/19 02:13:25;;;;;;;4.70;1.92;;;;;;;;;;5054582;28;20297;-84
2022/10/19 02:15:57;;;;;;;1.98;1.55;;;;;;;;;;5054194;28;20614;-85
2022/10/19 02:18:27;;;;;;;2.20;1.98;;;;;;;;;;5053756;28;20194;-84
2022/10/19 02:20:54;;;;;;;3.40;1.58;;;;;;;;;;5054391;28;20289;-83
2022/10/19 02:23:25;;;;;;;3.33;1.65;;;;;;;;;;5053706;28;20237;-84
2022/10/19 02:25:53;;;;;;;0.93;0.90;;;;;;;;;;5054023;28;20232;-84
2022/10/19 02:28:21;;;;;;;0.80;0.80;;;;;;;;;;5053529;28;20198;-84
2022/10/19 02:30:49;;;;;;;1.00;1.00;;;;;;;;;;5054049;28;20225;-83
2022/10/19 02:33:18;;;;;;;0.80;0.80;;;;;;;;;;5063886;28;20228;-84
2022/10/19 02:35:46;;;;;;;0.90;0.90;;;;;;;;;;5067771;28;20225;-84
2022/10/19 02:38:18;;;;;;;1.02;1.02;;;;;;;;;;5053527;28;20202;-84
2022/10/19 02:40:54;;;;;;;0.80;0.80;;;;;;;;;;5053686;28;20647;-83
2022/10/19 02:43:22;;;;;;;0.90;0.90;;;;;;;;;;5053770;28;20685;-84
2022/10/19 02:45:54;;;;;;;0.65;0.65;;;;;;;;;;5053431;28;20226;-83
2022/10/19 02:48:24;;;;;;;1.10;1.08;;;;;;;;;;5053223;28;20201;-84
2022/10/19 02:50:52;;;;;;;1.33;1.33;;;;;;;;;;5053201;28;20198;-84
2022/10/19 02:53:19;;;;;;;1.17;1.08;;;;;;;;;;5053747;28;20197;-84
2022/10/19 02:55:48;;;;;;;1.30;1.20;;;;;;;;;;5052925;28;20796;-82
2022/10/19 02:58:16;;;;;;;1.30;1.20;;;;;;;;;;5052858;28;20692;-85
2022/10/19 03:00:44;;;;;;;0.80;0.80;;;;;;;;;;5053048;28;20288;-84
2022/10/19 03:03:11;;;;;;;0.80;0.80;;;;;;;;;;5053413;28;20198;-83
2022/10/19 03:05:40;;;;;;;1.13;0.90;;;;;;;;;;5053211;28;20265;-83
2022/10/19 03:08:08;;;;;;;0.70;0.70;;;;;;;;;;5051877;28;20292;-84
2022/10/19 03:10:35;;;;;;;0.70;0.70;;;;;;;;;;5052714;28;20248;-84
2022/10/19 03:13:03;;;;;;;1.13;1.13;;;;;;;;;;5053246;28;20308;-84
2022/10/19 03:15:30;;;;;;;0.90;0.90;;;;;;;;;;5053084;28;20217;-84
2022/10/19 03:17:58;;;;;;;1.27;1.17;;;;;;;;;;5052863;28;20289;-83
2022/10/19 03:20:25;;;;;;;1.35;1.20;;;;;;;;;;5053449;28;20263;-84
2022/10/19 03:22:54;;;;;;;2.92;1.80;;;;;;;;;;5053399;28;20229;-84
2022/10/19 03:25:21;;;;;;;1.60;1.50;;;;;;;;;;5053231;28;20304;-84
2022/10/19 03:27:49;;;;;;;1.30;1.20;;;;;;;;;;5053297;28;20206;-83
2022/10/19 03:30:17;;;;;;;1.90;1.52;;;;;;;;;;5053995;28;20643;-84
2022/10/19 03:32:44;;;;;;;2.42;2.10;;;;;;;;;;5058664;28;20223;-83
2022/10/19 03:35:12;;;;;;;4.50;3.20;;;;;;;;;;5071156;28;20229;-83
2022/10/19 03:37:39;;;;;;;5.50;3.70;;;;;;;;;;5052696;28;20288;-84
2022/10/19 03:40:10;;;;;;;8.55;3.60;;;;;;;;;;5052578;28;20294;-84
2022/10/19 03:42:40;;;;;;;5.22;3.40;;;;;;;;;;5053389;28;20202;-83
2022/10/19 03:45:09;;;;;;;4.32;3.15;;;;;;;;;;5052685;28;20308;-85
2022/10/19 03:47:36;;;;;;;5.47;4.03;;;;;;;;;;5054145;28;20208;-84
2022/10/19 03:50:05;;;;;;;5.90;4.78;;;;;;;;;;5052748;28;20289;-84
2022/10/19 03:52:33;;;;;;;6.75;3.88;;;;;;;;;;5052395;28;20710;-84
2022/10/19 03:55:00;;;;;;;7.97;4.20;;;;;;;;;;5052473;28;20249;-84
2022/10/19 03:57:29;;;;;;;7.45;4.55;;;;;;;;;;5052744;28;20202;-84
2022/10/19 03:59:56;;;;;;;8.50;5.60;;;;;;;;;;5051775;28;20288;-84
2022/10/19 04:02:24;;;;;;;4.45;4.03;;;;;;;;;;5052638;28;20300;-83
2022/10/19 04:04:51;;;;;;;4.75;3.10;;;;;;;;;;5052419;28;20801;-83
2022/10/19 04:07:19;;;;;;;2.83;2.63;;;;;;;;;;5052379;28;20296;-83
2022/10/19 04:09:46;;;;;;;1.80;1.70;;;;;;;;;;5051920;28;20304;-84
2022/10/19 04:12:14;;;;;;;1.58;1.48;;;;;;;;;;5052159;28;20213;-84
2022/10/19 04:14:42;;;;;;;1.48;1.38;;;;;;;;;;5052011;28;20713;-84
2022/10/19 04:17:10;;;;;;;1.45;1.35;;;;;;;;;;5052334;28;20280;-84
2022/10/19 04:19:38;;;;;;;0.90;0.90;;;;;;;;;;5053678;28;20599;-84
2022/10/19 04:22:05;;;;;;;1.58;1.48;;;;;;;;;;5056197;28;20198;-84
2022/10/19 04:24:33;;;;;;;0.90;0.90;;;;;;;;;;5056038;28;20259;-84
2022/10/19 04:27:00;;;;;;;1.00;1.00;;;;;;;;;;5055891;28;20737;-83
2022/10/19 04:29:28;;;;;;;1.33;1.33;;;;;;;;;;5056529;28;20211;-84
2022/10/19 04:31:56;;;;;;;1.27;1.17;;;;;;;;;;5056005;28;20208;-84
2022/10/19 04:34:24;;;;;;;0.88;0.88;;;;;;;;;;5075058;28;20240;-83
2022/10/19 04:36:52;;;;;;;1.10;1.10;;;;;;;;;;5060618;28;20669;-84
2022/10/19 04:39:20;;;;;;;1.52;1.42;;;;;;;;;;5055596;28;20676;-84
2022/10/19 04:41:47;;;;;;;1.10;1.10;;;;;;;;;;5056243;28;20226;-84
2022/10/19 04:44:15;;;;;;;0.90;0.90;;;;;;;;;;5055834;28;20198;-84
2022/10/19 04:46:42;;;;;;;1.27;1.20;;;;;;;;;;5055762;28;20197;-83
2022/10/19 04:49:11;;;;;;;1.10;1.10;;;;;;;;;;5055454;28;20245;-84
2022/10/19 04:51:39;;;;;;;0.98;0.98;;;;;;;;;;5055620;28;20686;-84
2022/10/19 04:54:06;;;;;;;1.88;1.60;;;;;;;;;;5055129;28;20611;-84
2022/10/19 04:56:34;;;;;;;3.35;1.75;;;;;;;;;;5055414;28;20560;-84
2022/10/19 04:59:02;;;;;;;1.63;1.52;;;;;;;;;;5055098;28;20292;-83
2022/10/19 05:01:31;;;;;;;1.23;1.20;;;;;;;;;;5055550;28;20209;-84
2022/10/19 05:04:01;;;;;;;1.40;1.30;;;;;;;;;;5055309;28;20211;-83
2022/10/19 05:06:31;;;;;;;1.25;1.25;;;;;;;;;;5055208;28;20209;-81
2022/10/19 05:08:59;;;;;;;1.33;1.30;;;;;;;;;;5054875;28;20825;-80
2022/10/19 05:11:27;;;;;;;1.58;1.48;;;;;;;;;;5055038;28;20216;-79
2022/10/19 05:13:55;;;;;;;1.23;1.20;;;;;;;;;;5055018;28;20606;-79
2022/10/19 05:16:24;;;;;;;1.63;1.52;;;;;;;;;;5054818;28;20221;-79
2022/10/19 05:18:57;;;;;;;1.73;1.63;;;;;;;;;;5054358;28;20208;-79
2022/10/19 05:21:26;;;;;;;1.50;1.40;;;;;;;;;;5054839;28;20668;-79
2022/10/19 05:23:56;;;;;;;1.15;1.15;;;;;;;;;;5054983;28;20201;-80
2022/10/19 05:26:26;;;;;;;1.80;1.70;;;;;;;;;;5054787;28;20229;-79
2022/10/19 05:28:56;;;;;;;1.00;1.00;;;;;;;;;;5054574;28;20297;-80
2022/10/19 05:31:26;;;;;;;1.00;1.00;;;;;;;;;;5054303;28;20202;-78
2022/10/19 05:33:54;;;;;;;1.42;1.33;;;;;;;;;;5069436;28;20217;-79
2022/10/19 05:36:25;;;;;;;2.13;1.50;;;;;;;;;;5063497;28;20231;-79
2022/10/19 05:38:55;;;;;;;1.30;1.20;;;;;;;;;;5054296;28;20662;-79
2022/10/19 05:41:25;;;;;;;1.52;1.42;;;;;;;;;;5051610;28;20662;-81
2022/10/19 05:43:54;;;;;;;5.22;2.17;;;;;;;;;;5054894;28;20678;-80
2022/10/19 05:46:22;;;;;;;3.60;1.65;;;;;;;;;;5053190;28;20217;-80
2022/10/19 05:48:50;;;;;;;1.63;1.52;;;;;;;;;;5074387;28;20200;-80
2022/10/19 05:51:20;;;;;;;2.50;2.30;;;;;;;;;;5074478;28;20207;-80
2022/10/19 05:53:48;;;;;;;2.40;2.20;;;;;;;;;;5074252;28;20227;-80
2022/10/19 05:56:18;;;;;;;3.40;2.90;;;;;;;;;;5074121;28;20246;-80
2022/10/19 05:58:46;;;;;;;5.05;3.85;;;;;;;;;;5065255;28;20197;-80
2022/10/19 06:01:14;;;;;;;4.47;4.07;;;;;;;;;;5054352;28;20297;-80
2022/10/19 06:03:42;;;;;;;5.30;3.75;;;;;;;;;;5054588;28;20200;-80
2022/10/19 06:06:10;;;;;;;6.25;4.78;;;;;;;;;;5058334;28;20675;-80
2022/10/19 06:08:39;;;;;;;3.20;3.00;;;;;;;;;;5053799;28;20206;-80
2022/10/19 06:11:08;;;;;;;3.30;3.00;;;;;;;;;;5053899;28;20252;-81
2022/10/19 06:16:21;;;;;;;1.60;1.50;;;;;;;;;;5039672;28;20612;-82
2022/10/19 06:18:49;;;;;;;4.65;2.78;;;;;;;;;;5041390;28;20199;-82
2022/10/19 06:21:19;;;;;;;5.25;3.00;;;;;;;;;;5042458;28;20237;-83
2022/10/19 06:23:51;;;;;;;6.40;3.22;;;;;;;;;;5038313;28;20243;-82
2022/10/19 06:26:19;;;;;;;3.17;2.00;;;;;;;;;;5039996;28;20654;-83
2022/10/19 06:28:49;;;;;;;1.90;1.80;;;;;;;;;;5040070;28;20206;-82
2022/10/19 06:31:17;;;;;;;1.70;1.60;;;;;;;;;;5039228;28;20278;-82
2022/10/19 06:33:46;;;;;;;1.77;1.50;;;;;;;;;;5040689;28;20233;-82
2022/10/19 06:36:15;;;;;;;2.20;2.03;;;;;;;;;;5040699;28;20225;-82
2022/10/19 06:38:44;;;;;;;2.25;1.98;;;;;;;;;;5043395;28;20246;-85
2022/10/19 06:41:12;;;;;;;2.58;2.17;;;;;;;;;;5039895;28;20225;-82
2022/10/19 06:43:41;;;;;;;2.15;2.05;;;;;;;;;;5035253;28;20183;-82
2022/10/19 06:46:16;;;;;;;2.88;2.63;;;;;;;;;;5035786;28;20374;-83
2022/10/19 06:48:44;;;;;;;2.55;2.25;;;;;;;;;;5036016;28;20286;-83
2022/10/19 06:51:12;;;;;;;2.20;2.00;;;;;;;;;;5034916;28;20229;-83
2022/10/19 06:53:40;;;;;;;2.28;2.08;;;;;;;;;;5035670;28;20308;-82
2022/10/19 06:56:08;;;;;;;1.90;1.80;;;;;;;;;;5036523;28;20228;-81
2022/10/19 06:58:36;;;;;;;2.58;2.38;;;;;;;;;;5036188;28;20202;-83
2022/10/19 07:01:07;;;;;;;2.03;1.92;;;;;;;;;;5036336;28;20622;-82
2022/10/19 07:03:37;;;;;;;1.63;1.52;;;;;;;;;;5035631;28;20178;-82
2022/10/19 07:06:07;;;;;;;1.95;1.85;;;;;;;;;;5035005;28;20221;-83
2022/10/19 07:08:37;;;;;;;2.58;2.42;;;;;;;;;;5035570;28;20559;-83
2022/10/19 07:11:07;;;;;;;2.00;1.83;;;;;;;;;;5035023;28;20270;-83
2022/10/19 07:13:34;;;;;;;2.75;2.42;;;;;;;;;;5035079;28;20310;-82
2022/10/19 07:16:05;;;;;;;2.10;2.00;;;;;;;;;;5034714;28;20229;-83
2022/10/19 07:18:35;;;;;;;2.03;1.92;;;;;;;;;;5034531;28;20268;-83
2022/10/19 07:21:05;;;;;;;2.25;1.88;;;;;;;;;;5034596;28;20204;-83
2022/10/19 07:23:34;;;;;;;2.10;2.00;;;;;;;;;;5035311;28;20202;-82
2022/10/19 07:26:06;;;;;;;2.70;2.50;;;;;;;;;;5033345;28;20219;-81
2022/10/19 07:28:34;;;;;;;2.53;2.33;;;;;;;;;;5033910;28;20204;-83
2022/10/19 07:31:06;;;;;;;2.65;2.05;;;;;;;;;;5016472;28;20202;-83
2022/10/19 07:33:36;;;;;;;3.72;2.30;;;;;;;;;;5033550;28;20210;-83
2022/10/19 07:36:07;;;;;;;2.25;2.15;;;;;;;;;;5033730;28;20222;-82
2022/10/19 07:38:35;;;;;;;2.45;2.22;;;;;;;;;;5033180;28;20189;-82
2022/10/19 07:41:06;;;;;;;4.30;2.85;;;;;;;;;;5033059;28;20202;-82
2022/10/19 07:43:34;;;;;;;3.45;2.70;;;;;;;;;;5034064;28;20246;-81
2022/10/19 07:46:04;;;;;;;1.90;1.80;;;;;;;;;;5033552;28;20631;-83
2022/10/19 07:48:32;;;;;;;2.90;2.60;;;;;;;;;;5033665;28;20720;-82
2022/10/19 07:51:05;;;;;;;3.53;3.33;;;;;;;;;;5034230;28;20222;-82
2022/10/19 07:53:33;;;;;;;2.10;2.00;;;;;;;;;;5034078;28;20687;-82
2022/10/19 07:56:04;;;;;;;2.80;2.38;;;;;;;;;;5033158;28;20222;-82
2022/10/19 07:58:33;;;;;;;3.05;2.85;;;;;;;;;;5033522;28;20256;-84
2022/10/19 08:01:01;;;;;;;3.30;3.00;;;;;;;;;;5033260;28;20209;-82
2022/10/19 08:03:29;;;;;;;2.83;2.63;;;;;;;;;;5033062;28;20202;-82
2022/10/19 08:06:02;;;;;;;2.22;2.03;;;;;;;;;;5032895;28;20222;-83
2022/10/19 08:08:30;;;;;;;2.10;1.65;;;;;;;;;;5033254;28;20196;-82
2022/10/19 08:10:58;;;;;;;2.10;1.90;;;;;;;;;;5033368;28;20298;-82
2022/10/19 08:13:25;;;;;;;3.25;1.83;;;;;;;;;;5032500;28;20200;-81
2022/10/19 08:15:53;;;;;;;2.53;2.30;;;;;;;;;;5032938;28;20308;-83
2022/10/19 08:18:21;;;;;;;3.50;2.45;;;;;;;;;;5033113;28;20285;-82
2022/10/19 08:20:49;;;;;;;1.90;1.80;;;;;;;;;;5032966;28;20198;-81
2022/10/19 08:23:18;;;;;;;2.15;2.05;;;;;;;;;;5033185;28;20190;-82
2022/10/19 08:25:46;;;;;;;2.10;1.90;;;;;;;;;;5033134;28;20285;-82
2022/10/19 08:28:13;;;;;;;2.95;2.75;;;;;;;;;;5033588;28;20297;-81
2022/10/19 08:30:42;;;;;;;2.72;2.53;;;;;;;;;;5033520;28;20240;-82
2022/10/19 08:33:11;;;;;;;2.35;2.20;;;;;;;;;;5035003;28;20278;-81
2022/10/19 08:35:38;;;;;;;2.85;2.20;;;;;;;;;;5036257;28;20232;-82
2022/10/19 08:38:06;;;;;;;3.20;3.00;;;;;;;;;;5034187;28;20289;-82
2022/10/19 08:40:35;;;;;;;2.60;2.40;;;;;;;;;;5032540;28;20236;-81
2022/10/19 08:43:11;;;;;;;3.78;3.00;;;;;;;;;;5033176;28;20293;-81
2022/10/19 08:45:41;;;;;;;3.47;3.17;;;;;;;;;;5032146;28;20202;-82
2022/10/19 08:48:25;;;;;;;2.90;2.70;;;;;;;;;;5033157;28;20280;-82
2022/10/19 08:50:53;;;;;;;3.05;2.80;;;;;;;;;;5033649;28;20270;-81
2022/10/19 08:53:32;;;;;;;2.85;2.65;;;;;;;;;;5033091;28;20857;-81
2022/10/19 08:56:18;;;;;;;2.78;2.58;;;;;;;;;;5032931;28;20226;-81
2022/10/19 08:59:00;;;;;;;3.55;3.25;;;;;;;;;;5032988;28;20556;-82
2022/10/19 09:01:37;;;;;;;2.42;2.22;;;;;;;;;;5033247;28;20186;-81
2022/10/19 09:04:10;;;;;;;2.10;1.90;;;;;;;;;;5033095;28;20615;-81
2022/10/19 09:06:51;;;;;;;3.15;2.00;;;;;;;;;;5035745;28;20225;-81
2022/10/19 09:09:21;;;;;;;2.55;2.35;;;;;;;;;;5036799;28;20638;-81
2022/10/19 09:11:53;;;;;;;1.92;1.75;;;;;;;;;;5035451;28;20727;-81
2022/10/19 09:14:26;;;;;;;2.25;2.05;;;;;;;;;;5033840;28;20210;-80
2022/10/19 09:16:54;;;;;;;1.98;1.80;;;;;;;;;;5035831;28;20307;-81
2022/10/19 09:19:24;;;;;;;1.88;1.77;;;;;;;;;;5036199;28;20568;-80
2022/10/19 09:21:56;;;;;;;2.72;2.40;;;;;;;;;;5036687;28;20639;-80
2022/10/19 09:24:37;;;;;;;4.15;2.85;;;;;;;;;;5036668;28;20187;-81
2022/10/19 09:27:10;;;;;;;3.60;2.25;;;;;;;;;;5036147;28;20233;-81
2022/10/19 09:29:42;;;;;;;2.35;2.25;;;;;;;;;;5036381;28;20187;-81
2022/10/19 09:32:15;;;;;;;2.15;1.98;;;;;;;;;;5036324;28;20194;-81
2022/10/19 09:34:45;;;;;;;2.42;2.15;;;;;;;;;;5036178;28;20183;-81
2022/10/19 09:37:13;;;;;;;2.78;2.40;;;;;;;;;;5036092;28;20310;-82
2022/10/19 09:39:40;;;;;;;1.92;1.83;;;;;;;;;;5035826;28;20213;-82
2022/10/19 09:42:18;;;;;;;2.30;2.10;;;;;;;;;;5036077;28;20229;-81
2022/10/19 09:44:47;;;;;;;1.83;1.73;;;;;;;;;;5036100;28;20692;-82
2022/10/19 09:47:32;;;;;;;4.22;2.20;;;;;;;;;;5035796;28;20313;-81
2022/10/19 09:50:20;;;;;;;2.35;1.95;;;;;;;;;;5036224;28;20631;-83
2022/10/19 09:52:48;;;;;;;3.10;2.63;;;;;;;;;;5036346;28;20664;-80
2022/10/19 09:55:29;;;;;;;2.10;1.90;;;;;;;;;;5035836;28;20309;-78
2022/10/19 09:58:04;;;;;;;3.38;1.98;;;;;;;;;;5036125;28;20650;-80
2022/10/19 10:00:37;;;;;;;2.15;1.67;;;;;;;;;;5035982;28;20222;-79
2022/10/19 10:03:06;;;;;;;1.88;1.67;;;;;;;;;;5036535;28;20265;-80
2022/10/19 10:05:36;;;;;;;2.25;1.80;;;;;;;;;;5035663;28;20202;-79
2022/10/19 10:08:04;;;;;;;2.28;1.73;;;;;;;;;;5035299;28;20198;-80
2022/10/19 10:10:38;;;;;;;1.00;1.00;;;;;;;;;;5035383;28;20701;-79
2022/10/19 10:13:09;;;;;;;1.42;1.33;;;;;;;;;;5035774;28;20193;-80
2022/10/19 10:15:43;;;;;;;1.50;1.40;;;;;;;;;;5035341;28;20202;-80
2022/10/19 10:18:15;;;;;;;4.38;1.50;;;;;;;;;;5034366;28;20190;-80
2022/10/19 10:21:00;;;;;;;1.30;1.10;;;;;;;;;;5035341;28;20187;-81
2022/10/19 10:23:32;;;;;;;1.08;1.08;;;;;;;;;;5035801;28;20277;-80
2022/10/19 10:26:01;;;;;;;1.25;1.08;;;;;;;;;;5035480;28;20226;-79
2022/10/19 10:28:31;;;;;;;1.05;0.95;;;;;;;;;;5035590;28;20218;-80
2022/10/19 10:31:04;;;;;;;0.88;0.85;;;;;;;;;;5035236;28;20689;-80
2022/10/19 10:33:35;;;;;;;1.10;0.75;;;;;;;;;;5035047;28;20196;-79
2022/10/19 10:36:08;;;;;;;1.08;1.08;;;;;;;;;;5035461;28;20222;-80
2022/10/19 10:38:40;;;;;;;0.60;0.60;;;;;;;;;;5035287;28;20197;-81
2022/10/19 10:41:12;;;;;;;0.65;0.60;;;;;;;;;;5035006;28;20206;-81
2022/10/19 10:43:53;;;;;;;1.10;0.75;;;;;;;;;;5035200;28;20190;-80
2022/10/19 10:46:24;;;;;;;0.60;0.60;;;;;;;;;;5034831;28;20234;-79
2022/10/19 10:48:57;;;;;;;0.80;0.80;;;;;;;;;;5034887;28;20666;-80
2022/10/19 10:51:32;;;;;;;0.60;0.60;;;;;;;;;;5034166;28;20187;-80
2022/10/19 10:54:21;;;;;;;0.50;0.50;;;;;;;;;;5034857;28;20273;-80
2022/10/19 10:57:11;;;;;;;0.35;0.35;;;;;;;;;;5035295;28;20587;-80
2022/10/19 10:59:50;;;;;;;0.65;0.65;;;;;;;;;;5035192;28;20187;-80
2022/10/19 11:02:40;;;;;;;0.60;0.60;;;;;;;;;;5035077;28;20206;-79
2022/10/19 11:05:13;;;;;;;0.70;0.70;;;;;;;;;;5034868;28;20191;-81
2022/10/19 11:07:45;;;;;;;0.65;0.65;;;;;;;;;;5034547;28;20226;-82
2022/10/19 11:10:25;;;;;;;0.60;0.60;;;;;;;;;;5035245;28;20187;-80
2022/10/19 11:12:59;;;;;;;0.32;0.32;;;;;;;;;;5034704;28;20198;-82
2022/10/19 11:15:32;;;;;;;0.38;0.38;;;;;;;;;;5034368;28;20224;-80
2022/10/19 11:18:12;;;;;;;0.70;0.70;;;;;;;;;;5034666;28;20277;-81
2022/10/19 11:20:45;;;;;;;0.45;0.45;;;;;;;;;;5034178;28;20776;-81
2022/10/19 11:23:18;;;;;;;0.50;0.50;;;;;;;;;;5034149;28;20197;-82
2022/10/19 11:25:56;;;;;;;0.47;0.38;;;;;;;;;;5033483;28;20578;-81
2022/10/19 11:28:38;;;;;;;0.40;0.40;;;;;;;;;;5033746;28;20750;-81
2022/10/19 11:31:16;;;;;;;1.45;0.52;;;;;;;;;;5034114;28;20193;-80
2022/10/19 11:33:58;;;;;;;0.95;0.65;;;;;;;;;;5034522;28;20269;-80
2022/10/19 11:36:42;;;;;;;0.60;0.60;;;;;;;;;;5034489;28;20229;-81
2022/10/19 11:39:29;;;;;;;0.77;0.77;;;;;;;;;;5034448;28;20209;-81
2022/10/19 11:42:05;;;;;;;1.23;0.70;;;;;;;;;;5034586;28;20182;-81
2022/10/19 11:44:48;;;;;;;0.70;0.70;;;;;;;;;;5034138;28;20186;-81
2022/10/19 11:47:33;;;;;;;0.77;0.60;;;;;;;;;;5035140;28;20229;-82
2022/10/19 11:50:14;;;;;;;0.60;0.60;;;;;;;;;;5033717;28;20556;-80
2022/10/19 11:52:46;;;;;;;0.80;0.80;;;;;;;;;;5034099;28;20677;-81
2022/10/19 11:55:28;;;;;;;0.57;0.47;;;;;;;;;;5033855;28;20217;-81
2022/10/19 11:58:04;;;;;;;0.57;0.57;;;;;;;;;;5033992;28;20274;-81
2022/10/19 12:00:33;;;;;;;0.52;0.52;;;;;;;;;;5034022;28;20195;-80
2022/10/19 12:03:30;;;;;;;1.08;0.95;;;;;;;;;;5033376;28;20208;-80
2022/10/19 12:06:08;;;;;;;0.60;0.60;;;;;;;;;;5033961;28;20222;-80
2022/10/19 12:08:50;;;;;;;0.75;0.70;;;;;;;;;;5033703;28;20197;-80
2022/10/19 12:11:28;;;;;;;0.88;0.88;;;;;;;;;;5034103;28;20280;-80
2022/10/19 12:13:59;;;;;;;0.85;0.75;;;;;;;;;;5033726;28;20183;-80
2022/10/19 12:16:35;;;;;;;1.27;1.10;;;;;;;;;;5032673;28;20226;-80
2022/10/19 12:19:05;;;;;;;0.60;0.60;;;;;;;;;;5033638;28;20803;-80
2022/10/19 12:21:36;;;;;;;0.47;0.47;;;;;;;;;;5033351;28;20204;-80
2022/10/19 12:24:11;;;;;;;0.80;0.80;;;;;;;;;;5033191;28;20221;-80
2022/10/19 12:26:39;;;;;;;0.80;0.80;;;;;;;;;;5032938;28;20670;-80
2022/10/19 12:29:12;;;;;;;1.20;1.10;;;;;;;;;;5032533;28;20297;-80
2022/10/19 12:31:39;;;;;;;1.50;1.00;;;;;;;;;;5033386;28;20190;-80
2022/10/19 12:34:18;;;;;;;2.13;1.52;;;;;;;;;;5033220;28;20237;-80
2022/10/19 12:36:50;;;;;;;1.08;0.90;;;;;;;;;;5033710;28;20222;-79
2022/10/19 12:39:23;;;;;;;1.30;1.20;;;;;;;;;;5032440;28;20230;-79
2022/10/19 12:41:56;;;;;;;1.45;1.30;;;;;;;;;;5036466;28;20214;-80
2022/10/19 12:44:44;;;;;;;1.00;1.00;;;;;;;;;;5036627;28;20230;-80
2022/10/19 12:47:15;;;;;;;0.80;0.80;;;;;;;;;;5036911;28;20690;-80
2022/10/19 12:49:48;;;;;;;3.30;1.10;;;;;;;;;;5037409;28;20301;-80
2022/10/19 12:52:33;;;;;;;0.77;0.77;;;;;;;;;;5037301;28;20675;-80
2022/10/19 12:55:26;;;;;;;2.63;1.10;;;;;;;;;;5037507;28;20273;-78
2022/10/19 12:58:00;;;;;;;0.90;0.90;;;;;;;;;;5033028;28;20219;-80
2022/10/19 13:00:31;;;;;;;0.70;0.70;;;;;;;;;;5036921;28;20708;-80
2022/10/19 13:03:04;;;;;;;0.90;0.90;;;;;;;;;;5036467;28;20273;-81
2022/10/19 13:05:34;;;;;;;0.65;0.65;;;;;;;;;;5036374;28;20281;-81
2022/10/19 13:08:04;;;;;;;2.22;1.08;;;;;;;;;;5036439;28;20683;-81
2022/10/19 13:10:32;;;;;;;1.02;0.98;;;;;;;;;;5037548;28;20213;-80
2022/10/19 13:13:01;;;;;;;1.10;0.82;;;;;;;;;;5036555;28;20209;-80
2022/10/19 13:15:56;;;;;;;0.93;0.93;;;;;;;;;;5037362;28;20244;-80
2022/10/19 13:19:19;;;;;;;1.25;0.98;;;;;;;;;;5036597;28;20206;-80
2022/10/19 13:22:01;;;;;;;0.63;0.63;;;;;;;;;;5020483;28;20289;-81
2022/10/19 13:24:34;;;;;;;1.48;0.95;;;;;;;;;;5037120;28;20632;-82
2022/10/19 13:27:37;;;;;;;1.20;1.02;;;;;;;;;;5036912;28;20229;-83
2022/10/19 13:30:08;;;;;;;0.68;0.68;;;;;;;;;;5036575;28;20206;-81
2022/10/19 13:32:43;;;;;;;0.80;0.80;;;;;;;;;;5036498;28;20239;-82
2022/10/19 13:35:33;;;;;;;4.30;1.00;;;;;;;;;;5036875;28;20273;-82
2022/10/19 13:38:26;;;;;;;1.10;1.00;;;;;;;;;;5037265;28;20719;-82
2022/10/19 13:41:11;;;;;;;1.25;0.85;;;;;;;;;;5037522;28;20274;-81
2022/10/19 13:43:50;;;;;;;1.15;0.80;;;;;;;;;;5036386;28;20666;-81
2022/10/19 13:46:20;;;;;;;1.13;1.10;;;;;;;;;;5037421;28;20229;-81
2022/10/19 13:49:32;;;;;;;0.77;0.70;;;;;;;;;;5036888;28;20225;-81
2022/10/19 13:52:30;;;;;;;1.70;0.90;;;;;;;;;;4936802;29;20212;-83
2022/10/19 13:55:22;;;;;;;1.02;0.82;;;;;;;;;;4931088;29;20232;-82
2022/10/19 13:58:12;;;;;;;1.23;1.13;;;;;;;;;;5026439;28;20221;-82
2022/10/19 14:01:00;;;;;;;1.92;1.65;;;;;;;;;;5036820;28;20193;-82
2022/10/19 14:03:43;;;;;;;2.28;1.60;;;;;;;;;;5037316;28;20620;-82
2022/10/19 14:06:22;;;;;;;0.93;0.88;;;;;;;;;;5027264;28;20223;-81
2022/10/19 14:09:39;;;;;;;1.00;1.00;;;;;;;;;;5016356;28;20206;-81
2022/10/19 14:12:15;;;;;;;0.90;0.90;;;;;;;;;;5003436;28;20210;-82
2022/10/19 14:14:44;;;;;;;1.00;1.00;;;;;;;;;;5017269;28;20206;-83
2022/10/19 14:17:17;;;;;;;0.85;0.85;;;;;;;;;;5017304;28;20229;-82
2022/10/19 14:19:47;;;;;;;1.48;1.38;;;;;;;;;;5016886;28;20230;-83
2022/10/19 14:22:26;;;;;;;1.17;0.75;;;;;;;;;;5016724;28;20689;-81
2022/10/19 14:25:02;;;;;;;0.98;0.93;;;;;;;;;;5016974;28;20214;-82
2022/10/19 14:27:31;;;;;;;2.25;1.20;;;;;;;;;;5016740;28;20226;-82
2022/10/19 14:29:58;;;;;;;1.65;1.00;;;;;;;;;;5016735;28;20238;-81
2022/10/19 14:32:28;;;;;;;1.42;1.33;;;;;;;;;;5016178;28;20239;-82
2022/10/19 14:34:59;;;;;;;1.42;0.77;;;;;;;;;;5016538;28;20203;-82
2022/10/19 14:37:27;;;;;;;0.90;0.90;;;;;;;;;;5035632;28;20313;-82
2022/10/19 14:40:04;;;;;;;1.17;1.08;;;;;;;;;;5035921;28;20245;-81
2022/10/19 14:42:45;;;;;;;0.90;0.90;;;;;;;;;;5036677;28;20277;-85
2022/10/19 14:45:20;;;;;;;1.02;1.00;;;;;;;;;;5036149;28;20238;-83
2022/10/19 14:48:00;;;;;;;2.85;1.20;;;;;;;;;;5035299;28;20242;-82
2022/10/19 14:50:33;;;;;;;1.17;1.17;;;;;;;;;;5035735;28;20253;-82
2022/10/19 14:53:07;;;;;;;0.90;0.90;;;;;;;;;;5036658;28;20619;-82
2022/10/19 14:55:38;;;;;;;1.30;1.10;;;;;;;;;;5037420;28;20218;-84
2022/10/19 14:58:17;;;;;;;1.50;1.20;;;;;;;;;;5038744;28;20269;-83
2022/10/19 15:00:48;;;;;;;1.40;1.13;;;;;;;;;;5035958;28;20684;-83
2022/10/19 15:03:25;;;;;;;1.38;0.98;;;;;;;;;;5036925;28;20193;-84
2022/10/19 15:05:58;;;;;;;1.80;1.30;;;;;;;;;;5038571;28;20345;-83
2022/10/19 15:08:38;;;;;;;1.13;1.02;;;;;;;;;;5037664;28;20746;-82
2022/10/19 15:11:07;;;;;;;1.77;1.30;;;;;;;;;;5036856;28;20297;-83
2022/10/19 15:13:42;;;;;;;1.83;1.50;;;;;;;;;;5037511;28;20308;-83
2022/10/19 15:16:43;;;;;;;1.60;1.40;;;;;;;;;;5036303;28;20222;-84
2022/10/19 15:19:21;;;;;;;1.20;1.20;;;;;;;;;;5036474;28;20676;-83